createdAt,value
2023-04-25T00:02:01.394Z,8.51
2023-04-25T00:04:12.309Z,8.64
2023-04-25T00:06:25.735Z,8.61
2023-04-25T00:08:36.062Z,8.54
2023-04-25T00:10:47.253Z,8.44
2023-04-25T00:12:57.474Z,8.35
2023-04-25T00:15:08.893Z,8.24
2023-04-25T00:19:32.472Z,8.06
2023-04-25T00:21:43.334Z,7.98
2023-04-25T00:23:59.609Z,8.01
2023-04-25T00:26:09.714Z,7.99
2023-04-25T00:28:19.754Z,7.93
2023-04-25T00:30:31.494Z,7.88
2023-04-25T00:32:44.129Z,7.86
2023-04-25T00:34:56.254Z,7.86
2023-04-25T00:37:07.290Z,7.86
2023-04-25T00:39:18.736Z,7.83
2023-04-25T00:41:29.154Z,7.79
2023-04-25T00:43:39.713Z,7.77
2023-04-25T00:45:49.992Z,7.75
2023-04-25T00:48:04.551Z,7.77
2023-04-25T00:50:15.498Z,7.73
2023-04-25T00:52:25.588Z,7.65
2023-04-25T00:54:35.369Z,7.6
2023-04-25T00:59:50.909Z,7.53
2023-04-25T01:02:02.213Z,7.53
2023-04-25T01:04:15.884Z,7.53
2023-04-25T01:06:28.049Z,7.58
2023-04-25T01:08:37.689Z,7.62
2023-04-25T01:10:48.734Z,7.71
2023-04-25T01:12:58.768Z,7.76
2023-04-25T01:15:10.211Z,7.8
2023-04-25T01:17:20.188Z,7.85
2023-04-25T01:19:31.194Z,7.91
2023-04-25T01:21:41.652Z,7.95
2023-04-25T01:23:52.631Z,8
2023-04-25T01:26:06.718Z,8.02
2023-04-25T01:28:16.892Z,8.04
2023-04-25T01:30:26.788Z,8.07
2023-04-25T01:32:38.430Z,8.09
2023-04-25T01:34:47.904Z,8.13
2023-04-25T01:36:58.090Z,8.18
2023-04-25T01:39:08.497Z,8.22
2023-04-25T01:41:19.010Z,8.24
2023-04-25T01:43:31.170Z,8.23
2023-04-25T01:45:41.300Z,8.22
2023-04-25T01:47:51.751Z,8.18
2023-04-25T01:50:03.532Z,8.16
2023-04-25T01:52:13.946Z,8.15
2023-04-25T01:54:24.145Z,8.17
2023-04-25T01:56:33.983Z,8.2
2023-04-25T01:58:43.602Z,8.2
2023-04-25T02:00:54.414Z,8.17
2023-04-25T02:03:05.281Z,8.21
2023-04-25T02:05:16.147Z,8.22
2023-04-25T02:07:26.005Z,8.27
2023-04-25T02:09:36.468Z,8.31
2023-04-25T02:11:47.004Z,8.39
2023-04-25T02:14:00.091Z,8.44
2023-04-25T02:16:09.905Z,8.49
2023-04-25T02:18:19.960Z,8.56
2023-04-25T02:20:31.595Z,8.61
2023-04-25T02:22:42.044Z,8.63
2023-04-25T02:24:53.073Z,8.64
2023-04-25T02:27:04.088Z,8.66
2023-04-25T02:29:14.108Z,8.68
2023-04-25T02:31:24.512Z,8.72
2023-04-25T02:33:37.088Z,8.75
2023-04-25T02:35:47.845Z,8.75
2023-04-25T02:37:57.909Z,8.77
2023-04-25T02:40:08.796Z,8.76
2023-04-25T02:42:19.048Z,8.74
2023-04-25T02:44:29.264Z,8.72
2023-04-25T02:46:39.995Z,8.73
2023-04-25T02:48:50.649Z,8.73
2023-04-25T02:51:01.973Z,8.76
2023-04-25T02:53:12.805Z,8.77
2023-04-25T02:55:26.292Z,8.76
2023-04-25T02:57:38.906Z,8.78
2023-04-25T02:59:49.705Z,8.79
2023-04-25T03:02:00.400Z,8.81
2023-04-25T03:04:11.249Z,8.82
2023-04-25T03:06:21.884Z,8.85
2023-04-25T03:08:31.931Z,8.93
2023-04-25T03:10:41.825Z,8.95
2023-04-25T03:12:52.006Z,8.96
2023-04-25T03:15:01.904Z,8.97
2023-04-25T03:17:12.727Z,9.05
2023-04-25T03:19:24.266Z,9.15
2023-04-25T03:21:34.689Z,9.19
2023-04-25T03:23:46.184Z,9.22
2023-04-25T03:25:58.670Z,9.26
2023-04-25T03:28:09.706Z,9.38
2023-04-25T03:30:20.117Z,9.53
2023-04-25T03:32:30.570Z,9.66
2023-04-25T03:34:42.316Z,9.84
2023-04-25T03:36:54.646Z,10.01
2023-04-25T03:39:07.272Z,10.08
2023-04-25T03:41:17.653Z,10.18
2023-04-25T03:43:28.326Z,10.3
2023-04-25T03:45:38.731Z,10.39
2023-04-25T03:47:52.887Z,10.46
2023-04-25T03:50:03.834Z,10.51
2023-04-25T03:52:13.367Z,10.58
2023-04-25T03:54:24.145Z,10.62
2023-04-25T03:56:35.007Z,10.66
2023-04-25T03:58:46.118Z,10.67
2023-04-25T04:01:00.688Z,10.72
2023-04-25T04:03:13.961Z,10.73
2023-04-25T04:05:25.603Z,10.73
2023-04-25T04:07:38.446Z,10.74
2023-04-25T04:09:49.973Z,10.76
2023-04-25T04:11:59.669Z,10.77
2023-04-25T04:14:09.925Z,10.74
2023-04-25T04:16:20.816Z,10.77
2023-04-25T04:18:31.946Z,10.77
2023-04-25T04:20:43.132Z,10.76
2023-04-25T04:22:59.726Z,10.77
2023-04-25T04:25:14.312Z,10.78
2023-04-25T04:27:29.084Z,10.76
2023-04-25T04:29:39.685Z,10.77
2023-04-25T04:31:49.911Z,10.76
2023-04-25T04:34:01.789Z,10.78
2023-04-25T04:36:12.510Z,10.69
2023-04-25T04:38:24.980Z,10.68
2023-04-25T04:40:37.966Z,10.67
2023-04-25T04:42:47.207Z,10.63
2023-04-25T04:44:57.628Z,10.59
2023-04-25T04:47:07.175Z,10.64
2023-04-25T04:49:22.466Z,10.63
2023-04-25T04:51:33.164Z,10.61
2023-04-25T04:53:43.663Z,10.58
2023-04-25T04:55:57.286Z,10.57
2023-04-25T04:58:10.064Z,10.57
2023-04-25T05:00:29.606Z,10.59
2023-04-25T05:02:43.284Z,10.6
2023-04-25T05:04:54.085Z,10.57
2023-04-25T05:07:05.171Z,10.56
2023-04-25T05:09:16.830Z,10.59
2023-04-25T05:11:28.579Z,10.5
2023-04-25T05:13:39.449Z,10.53
2023-04-25T05:15:50.789Z,10.54
2023-04-25T05:18:01.227Z,10.56
2023-04-25T05:20:13.108Z,10.59
2023-04-25T05:22:24.756Z,10.52
2023-04-25T05:24:35.270Z,10.45
2023-04-25T05:26:45.867Z,10.46
2023-04-25T05:28:56.327Z,10.42
2023-04-25T05:31:06.753Z,10.37
2023-04-25T05:33:19.138Z,10.3
2023-04-25T05:35:30.530Z,10.24
2023-04-25T05:37:41.085Z,10.24
2023-04-25T05:39:57.703Z,10.18
2023-04-25T05:42:22.630Z,10.1
2023-04-25T05:44:35.656Z,10.02
2023-04-25T05:46:48.705Z,10.07
2023-04-25T05:49:00.507Z,10.09
2023-04-25T05:51:10.700Z,10.02
2023-04-25T05:53:22.763Z,10.02
2023-04-25T05:55:34.403Z,10.06
2023-04-25T05:57:51.387Z,10.04
2023-04-25T06:00:02.364Z,10.03
2023-04-25T06:02:12.730Z,10.06
2023-04-25T06:04:24.268Z,10.07
2023-04-25T06:06:36.401Z,10.16
2023-04-25T06:08:48.924Z,10.21
2023-04-25T06:11:00.607Z,10.21
2023-04-25T06:13:17.562Z,10.25
2023-04-25T06:15:31.603Z,10.25
2023-04-25T06:17:43.195Z,10.25
2023-04-25T06:19:55.360Z,10.18
2023-04-25T06:22:05.027Z,10.09
2023-04-25T06:24:15.310Z,10.13
2023-04-25T06:26:27.163Z,10.07
2023-04-25T06:28:39.382Z,10.17
2023-04-25T06:30:49.822Z,10.11
2023-04-25T06:33:01.421Z,10.07
2023-04-25T06:35:12.801Z,10.09
2023-04-25T06:37:24.363Z,10.09
2023-04-25T06:39:35.442Z,10.19
2023-04-25T06:41:49.660Z,10.3
2023-04-25T06:43:59.643Z,10.17
2023-04-25T06:46:09.885Z,10.1
2023-04-25T06:48:21.503Z,10.17
2023-04-25T06:50:33.743Z,10.16
2023-04-25T06:52:45.436Z,10.19
2023-04-25T06:54:56.029Z,10.28
2023-04-25T06:57:08.450Z,10.28
2023-04-25T06:59:21.188Z,10.23
2023-04-25T07:01:31.967Z,10.02
2023-04-25T07:03:59.757Z,9.96
2023-04-25T07:06:15.347Z,9.91
2023-04-25T07:08:26.365Z,9.9
2023-04-25T07:10:43.964Z,9.99
2023-04-25T07:12:59.084Z,10.09
2023-04-25T07:15:13.587Z,10.27
2023-04-25T07:17:23.966Z,10.37
2023-04-25T07:19:35.386Z,10.46
2023-04-25T07:21:46.650Z,10.44
2023-04-25T07:24:02.834Z,10.39
2023-04-25T07:26:15.792Z,10.31
2023-04-25T07:28:26.448Z,10.38
2023-04-25T07:30:37.053Z,10.45
2023-04-25T07:32:49.756Z,10.37
2023-04-25T07:35:01.048Z,10.35
2023-04-25T07:37:11.487Z,10.42
2023-04-25T07:39:22.108Z,10.48
2023-04-25T07:41:35.167Z,10.22
2023-04-25T07:43:53.986Z,10.11
2023-04-25T07:46:05.188Z,10.09
2023-04-25T07:48:16.107Z,10.05
2023-04-25T07:50:29.237Z,9.91
2023-04-25T07:52:47.384Z,9.85
2023-04-25T07:54:58.287Z,9.84
2023-04-25T07:57:10.268Z,9.81
2023-04-25T07:59:21.386Z,9.77
2023-04-25T08:01:36.553Z,9.53
2023-04-25T08:03:50.748Z,9.48
2023-04-25T08:06:07.089Z,9.32
2023-04-25T08:08:23.305Z,9.26
2023-04-25T08:10:39.651Z,9.25
2023-04-25T08:12:53.888Z,9.21
2023-04-25T08:15:04.889Z,9.2
2023-04-25T08:17:16.530Z,9.18
2023-04-25T08:19:28.778Z,9.23
2023-04-25T08:21:45.759Z,9.13
2023-04-25T08:24:00.366Z,9.14
2023-04-25T08:26:15.514Z,9.12
2023-04-25T08:28:27.335Z,9.17
2023-04-25T08:30:40.571Z,9.2
2023-04-25T08:32:52.110Z,9.24
2023-04-25T08:35:03.653Z,9.24
2023-04-25T08:37:16.215Z,9.17
2023-04-25T08:39:25.447Z,9.18
2023-04-25T08:41:42.272Z,9.23
2023-04-25T08:43:52.408Z,9.31
2023-04-25T08:46:02.786Z,9.34
2023-04-25T08:48:12.559Z,9.33
2023-04-25T08:50:26.726Z,9.38
2023-04-25T08:52:35.945Z,9.54
2023-04-25T08:54:47.886Z,9.66
2023-04-25T08:56:58.429Z,9.65
2023-04-25T08:59:09.249Z,9.77
2023-04-25T09:01:25.021Z,9.94
2023-04-25T09:03:36.869Z,9.96
2023-04-25T09:05:47.550Z,9.91
2023-04-25T09:08:00.384Z,9.92
2023-04-25T09:10:13.503Z,10.11
2023-04-25T09:12:40.642Z,9.99
2023-04-25T09:14:51.903Z,10.03
2023-04-25T09:17:05.712Z,9.9
2023-04-25T09:19:16.240Z,9.9
2023-04-25T09:21:46.076Z,9.86
2023-04-25T09:23:57.156Z,9.93
2023-04-25T09:26:08.421Z,9.88
2023-04-25T09:28:20.640Z,9.75
2023-04-25T09:30:36.571Z,9.85
2023-04-25T09:32:46.293Z,9.95
2023-04-25T09:34:56.942Z,9.97
2023-04-25T09:40:13.619Z,10.03
2023-04-25T09:45:01.764Z,10.18
2023-04-25T09:47:16.763Z,9.99
2023-04-25T09:49:28.774Z,10.04
2023-04-25T09:51:40.608Z,10.07
2023-04-25T09:53:52.010Z,9.97
2023-04-25T09:56:02.996Z,9.84
2023-04-25T09:58:14.533Z,9.77
2023-04-25T10:00:24.767Z,9.86
2023-04-25T10:02:36.506Z,9.82
2023-04-25T10:04:49.549Z,9.8
2023-04-25T10:07:04.378Z,9.75
2023-04-25T10:09:18.367Z,9.74
2023-04-25T10:11:30.357Z,9.71
2023-04-25T10:13:40.995Z,9.66
2023-04-25T10:15:51.215Z,9.62
2023-04-25T10:18:03.880Z,9.62
2023-04-25T10:20:16.796Z,9.69
2023-04-25T10:22:28.581Z,9.69
2023-04-25T10:24:39.631Z,9.77
2023-04-25T10:26:52.168Z,9.74
2023-04-25T10:29:02.653Z,9.84
2023-04-25T10:31:17.769Z,9.78
2023-04-25T10:33:29.942Z,9.71
2023-04-25T10:35:46.159Z,9.83
2023-04-25T10:37:57.261Z,9.86
2023-04-25T10:40:09.993Z,10.04
2023-04-25T10:42:25.752Z,9.98
2023-04-25T10:44:41.055Z,10.17
2023-04-25T10:46:58.089Z,10.13
2023-04-25T10:49:18.802Z,10.2
2023-04-25T10:51:43.756Z,10.24
2023-04-25T10:54:08.613Z,10.38
2023-04-25T10:56:51.963Z,10.42
2023-04-25T11:02:10.084Z,10.5
2023-04-25T11:04:39.343Z,10.48
2023-04-25T11:09:36.294Z,10.65
2023-04-25T11:12:03.377Z,10.5
2023-04-25T11:14:36.515Z,10.5
2023-04-25T11:17:00.509Z,10.5
2023-04-25T11:19:12.275Z,10.47
2023-04-25T11:21:31.890Z,10.5
2023-04-25T11:24:00.433Z,10.52
2023-04-25T11:26:20.712Z,10.77
2023-04-25T11:28:40.670Z,10.73
2023-04-25T11:31:00.201Z,10.8
2023-04-25T11:33:20.346Z,10.84
2023-04-25T11:36:12.993Z,10.87
2023-04-25T11:39:21.090Z,10.83
2023-04-25T11:42:01.476Z,10.86
2023-04-25T11:49:52.311Z,11.03
2023-04-25T11:52:02.749Z,10.99
2023-04-25T11:54:15.260Z,10.98
2023-04-25T11:56:29.894Z,10.81
2023-04-25T11:58:41.236Z,10.73
2023-04-25T12:00:52.256Z,10.84
2023-04-25T12:05:34.708Z,10.71
2023-04-25T12:07:47.354Z,10.67
2023-04-25T12:09:58.170Z,10.75
2023-04-25T12:12:12.529Z,10.73
2023-04-25T12:14:25.350Z,10.72
2023-04-25T12:16:37.584Z,10.75
2023-04-25T12:18:53.629Z,10.91
2023-04-25T12:21:05.030Z,10.78
2023-04-25T12:23:18.722Z,10.88
2023-04-25T12:25:31.131Z,10.79
2023-04-25T12:27:49.457Z,10.71
2023-04-25T12:30:03.934Z,10.67
2023-04-25T12:32:15.692Z,10.63
2023-04-25T12:34:26.905Z,10.66
2023-04-25T12:36:40.193Z,10.67
2023-04-25T12:38:53.444Z,10.78
2023-04-25T12:41:19.891Z,10.67
2023-04-25T12:43:35.053Z,10.71
2023-04-25T12:45:51.159Z,10.69
2023-04-25T12:48:02.739Z,10.81
2023-04-25T12:52:39.586Z,10.93
2023-04-25T12:54:52.403Z,11.01
2023-04-25T12:57:09.640Z,11.02
2023-04-25T12:59:25.452Z,10.85
2023-04-25T13:01:38.012Z,10.69
2023-04-25T13:06:01.834Z,10.92
2023-04-25T13:08:14.352Z,10.87
2023-04-25T13:10:26.257Z,10.85
2023-04-25T13:12:42.178Z,10.87
2023-04-25T13:14:53.772Z,10.83
2023-04-25T13:17:12.889Z,10.88
2023-04-25T13:19:27.239Z,10.81
2023-04-25T13:21:45.137Z,10.89
2023-04-25T13:23:59.291Z,10.85
2023-04-25T13:26:11.568Z,10.93
2023-04-25T13:28:22.013Z,10.84
2023-04-25T13:30:34.910Z,10.8
2023-04-25T13:32:50.164Z,10.58
2023-04-25T13:35:06.111Z,10.41
2023-04-25T13:39:53.367Z,10.7
2023-04-25T13:42:04.996Z,10.46
2023-04-25T13:44:16.078Z,10.34
2023-04-25T13:46:41.430Z,10.45
2023-04-25T13:49:10.240Z,10.51
2023-04-25T13:51:25.780Z,10.74
2023-04-25T13:53:42.762Z,10.87
2023-04-25T13:55:54.899Z,11.02
2023-04-25T13:58:06.895Z,11.1
2023-04-25T14:00:17.387Z,11.05
2023-04-25T14:02:31.411Z,11.2
2023-04-25T14:04:44.909Z,11.08
2023-04-25T14:06:56.089Z,11.02
2023-04-25T14:09:07.067Z,10.95
2023-04-25T14:11:17.626Z,11.02
2023-04-25T14:13:32.229Z,10.98
2023-04-25T14:15:46.155Z,10.88
2023-04-25T14:18:01.219Z,10.55
2023-04-25T14:20:14.001Z,10.71
2023-04-25T14:22:25.258Z,10.77
2023-04-25T14:24:36.821Z,10.66
2023-04-25T14:26:53.811Z,10.65
2023-04-25T14:29:05.627Z,10.68
2023-04-25T14:31:22.673Z,10.6
2023-04-25T14:33:39.778Z,10.59
2023-04-25T14:36:02.955Z,10.54
2023-04-25T14:38:15.951Z,10.47
2023-04-25T14:40:29.721Z,10.42
2023-04-25T14:42:43.126Z,10.35
2023-04-25T14:45:00.653Z,10.3
2023-04-25T14:47:23.429Z,10.22
2023-04-25T14:49:39.448Z,10.23
2023-04-25T14:51:58.550Z,10.25
2023-04-25T14:56:37.739Z,10.25
2023-04-25T14:58:56.930Z,9.99
2023-04-25T15:01:10.956Z,9.91
2023-04-25T15:03:40.072Z,9.98
2023-04-25T15:05:52.413Z,9.86
2023-04-25T15:08:07.833Z,9.91
2023-04-25T15:10:23.337Z,9.89
2023-04-25T15:12:36.320Z,9.97
2023-04-25T15:14:52.595Z,9.81
2023-04-25T15:17:11.117Z,9.62
2023-04-25T15:19:30.051Z,9.61
2023-04-25T15:21:58.073Z,9.42
2023-04-25T15:24:37.194Z,9.42
2023-04-25T15:29:50.316Z,9.16
2023-04-25T15:32:38.005Z,9.16
2023-04-25T15:35:47.782Z,9.06
2023-04-25T15:39:10.614Z,8.95
2023-04-25T15:42:07.798Z,8.89
2023-04-25T15:44:39.436Z,8.87
2023-04-25T15:47:22.674Z,8.93
2023-04-25T15:59:01.672Z,8.91
2023-04-25T16:01:58.661Z,8.85
2023-04-25T16:04:42.427Z,8.84
2023-04-25T16:07:46.964Z,8.76
2023-04-25T16:09:57.698Z,8.72
2023-04-25T16:12:11.179Z,8.73
2023-04-25T16:14:30.417Z,8.7
2023-04-25T16:17:13.851Z,8.65
2023-04-25T16:19:44.843Z,8.58
2023-04-25T16:22:44.408Z,8.5
2023-04-25T16:25:25.977Z,8.47
2023-04-25T16:36:24.796Z,8.2
2023-04-25T16:38:38.777Z,8.2
2023-04-25T16:41:01.430Z,8.19
2023-04-25T16:46:20.370Z,8.08
2023-04-25T16:51:36.348Z,8.05
2023-04-25T16:54:18.176Z,8.03
2023-04-25T16:59:45.287Z,7.99
2023-04-25T17:05:09.289Z,7.93
2023-04-25T17:07:50.309Z,7.93
2023-04-25T17:14:05.251Z,7.92
2023-04-25T17:31:43.010Z,7.8
2023-04-25T17:40:39.508Z,7.69
2023-04-25T17:43:05.845Z,7.71
2023-04-25T17:45:35.041Z,7.65
2023-04-25T17:51:15.323Z,7.6
2023-04-25T17:54:00.668Z,7.55
2023-04-25T18:04:14.031Z,7.59
2023-04-25T18:52:44.452Z,7.38
2023-04-25T18:59:16.301Z,7.39
2023-04-25T19:05:15.626Z,7.36
2023-04-25T19:11:45.125Z,7.36
2023-04-25T19:27:08.320Z,7.33
2023-04-25T19:33:25.665Z,7.3
2023-04-25T19:36:15.183Z,7.33
2023-04-25T19:39:06.544Z,7.32
2023-04-25T19:44:51.873Z,7.32
2023-04-25T19:48:07.101Z,7.33
2023-04-25T19:50:55.056Z,7.33
2023-04-25T19:53:43.844Z,7.37
2023-04-25T20:02:49.025Z,7.33
2023-04-25T20:05:45.285Z,7.34
2023-04-25T20:11:09.498Z,7.36
2023-04-25T20:14:00.872Z,7.36
2023-04-25T20:16:38.496Z,7.35
2023-04-25T20:28:18.236Z,7.37
2023-04-25T20:31:05.138Z,7.36
2023-04-25T20:33:32.752Z,7.38
2023-04-25T20:41:46.512Z,7.4
2023-04-25T20:44:16.646Z,7.4
2023-04-25T20:46:37.715Z,7.41
2023-04-25T20:49:37.565Z,7.43
2023-04-25T20:52:02.147Z,7.44
2023-04-25T20:57:10.364Z,7.42
2023-04-25T20:59:57.242Z,7.43
2023-04-25T21:02:27.391Z,7.41
2023-04-25T21:07:36.477Z,7.41
2023-04-25T21:10:11.539Z,7.37
2023-04-25T21:18:56.776Z,7.4
2023-04-25T21:24:03.003Z,7.39
2023-04-25T21:26:41.019Z,7.41
2023-04-25T21:32:21.291Z,7.4
2023-04-25T21:35:03.663Z,7.39
2023-04-25T21:37:37.850Z,7.4
2023-04-25T21:40:10.975Z,7.42
2023-04-25T21:48:31.677Z,7.42
2023-04-25T21:53:49.136Z,7.43
2023-04-25T21:59:12.710Z,7.44
2023-04-25T22:01:56.156Z,7.43
2023-04-25T22:04:42.842Z,7.44
2023-04-25T22:07:07.106Z,7.43
2023-04-25T22:09:58.109Z,7.45
2023-04-25T22:12:19.624Z,7.42
2023-04-25T22:14:55.510Z,7.49
2023-04-25T22:17:42.405Z,7.52
2023-04-25T22:20:29.033Z,7.49
2023-04-25T22:25:50.415Z,7.51
2023-04-25T22:28:19.649Z,7.51
2023-04-25T22:34:16.467Z,7.49
2023-04-25T22:39:07.072Z,7.46
2023-04-25T22:41:41.679Z,7.45
2023-04-25T22:47:25.429Z,7.4
2023-04-25T22:50:38.009Z,7.38
2023-04-25T22:53:11.191Z,7.36
2023-04-25T22:55:40.558Z,7.32
2023-04-25T22:58:31.490Z,7.29
2023-04-25T23:00:58.137Z,7.19
2023-04-25T23:03:46.778Z,7.15
2023-04-25T23:06:15.984Z,7.04
2023-04-25T23:11:51.858Z,7
2023-04-25T23:14:14.956Z,7
2023-04-25T23:16:48.574Z,7
2023-04-25T23:19:14.635Z,7
2023-04-25T23:21:53.417Z,6.99
2023-04-25T23:24:25.716Z,6.96
2023-04-25T23:29:26.395Z,6.95
2023-04-25T23:31:44.743Z,6.94
2023-04-25T23:34:01.888Z,6.92
2023-04-25T23:36:25.166Z,6.9
2023-04-25T23:38:49.044Z,6.88
2023-04-25T23:41:12.403Z,6.86
2023-04-25T23:43:53.845Z,6.82
2023-04-25T23:46:36.566Z,6.85
2023-04-25T23:48:57.342Z,6.8
2023-04-25T23:51:11.912Z,6.78
2023-04-25T23:53:56.093Z,6.78
2023-04-25T23:56:17.864Z,6.74
2023-04-25T23:59:04.189Z,6.74
